createdAt,value
2024-03-18T00:00:45.059Z,61.14
2024-03-18T00:01:45.075Z,61.74
2024-03-18T00:02:45.064Z,62.44
2024-03-18T00:03:45.060Z,64.27
2024-03-18T00:04:45.098Z,64.28
2024-03-18T00:05:50.108Z,62.34
2024-03-18T00:06:45.055Z,62.43
2024-03-18T00:07:45.086Z,62.68
2024-03-18T00:08:45.049Z,63.09
2024-03-18T00:09:45.062Z,63.21
2024-03-18T00:10:45.097Z,61.71
2024-03-18T00:11:45.089Z,63.50
2024-03-18T00:12:45.047Z,63.06
2024-03-18T00:13:45.121Z,64.02
2024-03-18T00:14:45.216Z,60.28
2024-03-18T00:15:45.323Z,61.01
2024-03-18T00:16:45.434Z,64.30
2024-03-18T00:17:45.500Z,62.98
2024-03-18T00:18:45.607Z,62.49
2024-03-18T00:19:45.715Z,62.22
2024-03-18T00:20:45.809Z,63.17
2024-03-18T00:21:45.866Z,63.46
2024-03-18T00:22:45.969Z,61.78
2024-03-18T00:23:46.068Z,64.85
2024-03-18T00:24:46.154Z,64.21
2024-03-18T00:25:46.272Z,62.14
2024-03-18T00:26:46.362Z,61.48
2024-03-18T00:27:46.447Z,62.30
2024-03-18T00:28:46.538Z,64.84
2024-03-18T00:29:46.649Z,62.03
2024-03-18T00:30:47.177Z,63.72
2024-03-18T00:31:46.785Z,64.37
2024-03-18T00:32:46.857Z,63.86
2024-03-18T00:33:46.881Z,63.00
2024-03-18T00:34:46.907Z,62.55
2024-03-18T00:35:50.335Z,60.40
2024-03-18T00:36:46.950Z,60.52
2024-03-18T00:37:46.965Z,60.97
2024-03-18T00:38:47.004Z,61.79
2024-03-18T00:39:46.985Z,61.40
2024-03-18T00:40:46.984Z,64.00
2024-03-18T00:41:47.016Z,63.69
2024-03-18T00:42:46.965Z,62.37
2024-03-18T00:43:46.963Z,62.95
2024-03-18T00:44:46.990Z,64.42
2024-03-18T00:45:46.977Z,59.90
2024-03-18T00:46:47.027Z,60.64
2024-03-18T00:47:47.004Z,60.05
2024-03-18T00:48:46.994Z,58.45
2024-03-18T00:49:46.997Z,59.47
2024-03-18T00:50:46.998Z,59.95
2024-03-18T00:51:47.005Z,61.01
2024-03-18T00:52:46.982Z,58.58
2024-03-18T00:53:47.019Z,56.74
2024-03-18T00:54:47.003Z,59.67
2024-03-18T00:55:52.038Z,56.92
2024-03-18T00:56:46.990Z,57.11
2024-03-18T00:57:46.991Z,57.33
2024-03-18T00:58:47.007Z,57.37
2024-03-18T00:59:47.013Z,57.83
2024-03-18T01:00:46.994Z,57.43
2024-03-18T01:01:47.003Z,59.41
2024-03-18T01:02:46.984Z,57.02
2024-03-18T01:03:47.081Z,56.01
2024-03-18T01:04:47.201Z,57.72
2024-03-18T01:05:47.309Z,56.85
2024-03-18T01:06:47.390Z,54.16
2024-03-18T01:07:47.589Z,54.27
2024-03-18T01:08:47.630Z,54.37
2024-03-18T01:09:47.716Z,52.72
2024-03-18T01:10:47.866Z,54.50
2024-03-18T01:11:47.962Z,55.09
2024-03-18T01:12:48.028Z,55.50
2024-03-18T01:13:48.137Z,54.37
2024-03-18T01:14:48.224Z,55.23
2024-03-18T01:15:48.362Z,53.48
2024-03-18T01:16:48.444Z,54.46
2024-03-18T01:17:48.513Z,54.25
2024-03-18T01:18:48.593Z,53.77
2024-03-18T01:19:48.732Z,52.58
2024-03-18T01:20:48.785Z,53.73
2024-03-18T01:21:48.907Z,51.31
2024-03-18T01:22:48.974Z,53.03
2024-03-18T01:23:49.074Z,52.23
2024-03-18T01:24:49.168Z,53.58
2024-03-18T01:25:49.301Z,54.28
2024-03-18T01:26:49.355Z,50.72
2024-03-18T01:27:49.443Z,52.17
2024-03-18T01:28:49.530Z,52.00
2024-03-18T01:29:49.619Z,52.42
2024-03-18T01:30:49.719Z,53.49
2024-03-18T01:31:49.809Z,54.01
2024-03-18T01:32:53.650Z,54.39
2024-03-18T01:33:49.861Z,55.08
2024-03-18T01:34:49.904Z,55.47
2024-03-18T01:35:50.007Z,51.32
2024-03-18T01:36:49.882Z,54.74
2024-03-18T01:37:49.909Z,54.58
2024-03-18T01:38:49.879Z,52.79
2024-03-18T01:39:49.882Z,54.34
2024-03-18T01:40:49.899Z,54.17
2024-03-18T01:41:49.902Z,53.83
2024-03-18T01:42:49.901Z,52.38
2024-03-18T01:43:49.913Z,55.62
2024-03-18T01:44:49.921Z,54.85
2024-03-18T01:45:49.873Z,54.87
2024-03-18T01:46:49.917Z,53.71
2024-03-18T01:47:49.885Z,53.15
2024-03-18T01:48:49.910Z,53.22
2024-03-18T01:49:49.891Z,51.01
2024-03-18T01:50:49.917Z,53.43
2024-03-18T01:51:49.882Z,52.31
2024-03-18T01:52:49.982Z,53.61
2024-03-18T01:53:49.897Z,54.27
2024-03-18T01:54:49.899Z,50.21
2024-03-18T01:55:49.898Z,54.36
2024-03-18T01:56:49.909Z,52.47
2024-03-18T01:57:49.900Z,52.61
2024-03-18T01:58:49.940Z,53.40
2024-03-18T01:59:49.933Z,52.96
2024-03-18T02:00:49.935Z,51.75
2024-03-18T02:01:49.959Z,51.83
2024-03-18T02:02:50.036Z,53.48
2024-03-18T02:03:50.051Z,52.50
2024-03-18T02:04:50.141Z,52.27
2024-03-18T02:05:50.160Z,51.20
2024-03-18T02:06:50.215Z,52.62
2024-03-18T02:07:50.275Z,50.19
2024-03-18T02:08:50.301Z,54.46
2024-03-18T02:09:50.352Z,53.62
2024-03-18T02:10:50.407Z,51.94
2024-03-18T02:11:50.449Z,51.33
2024-03-18T02:12:50.494Z,51.85
2024-03-18T02:13:50.545Z,52.61
2024-03-18T02:14:50.580Z,51.80
2024-03-18T02:15:50.614Z,53.18
2024-03-18T02:16:50.697Z,51.35
2024-03-18T02:17:50.697Z,53.03
2024-03-18T02:18:50.758Z,52.34
2024-03-18T02:19:50.791Z,52.92
2024-03-18T02:20:50.837Z,54.15
2024-03-18T02:21:50.887Z,50.96
2024-03-18T02:22:50.973Z,53.54
2024-03-18T02:23:51.005Z,54.36
2024-03-18T02:24:51.011Z,53.98
2024-03-18T02:25:51.069Z,53.65
2024-03-18T02:26:51.095Z,53.73
2024-03-18T02:27:51.132Z,54.23
2024-03-18T02:29:00.062Z,54.38
2024-03-18T02:29:51.199Z,54.56
2024-03-18T02:30:51.194Z,55.11
2024-03-18T02:31:51.180Z,55.81
2024-03-18T02:32:51.186Z,55.75
2024-03-18T02:33:51.179Z,57.57
2024-03-18T02:34:51.193Z,56.93
2024-03-18T02:35:51.196Z,56.16
2024-03-18T02:36:51.195Z,54.22
2024-03-18T02:37:51.215Z,56.97
2024-03-18T02:38:51.221Z,56.28
2024-03-18T02:39:51.225Z,55.48
2024-03-18T02:40:51.257Z,55.09
2024-03-18T02:41:51.227Z,55.92
2024-03-18T02:42:51.233Z,54.66
2024-03-18T02:43:51.248Z,56.19
2024-03-18T02:44:51.244Z,54.13
2024-03-18T02:45:51.225Z,52.53
2024-03-18T02:46:51.306Z,56.40
2024-03-18T02:47:51.275Z,55.59
2024-03-18T02:48:51.239Z,52.46
2024-03-18T02:49:51.254Z,56.23
2024-03-18T02:50:51.317Z,56.84
2024-03-18T02:51:51.247Z,53.71
2024-03-18T02:52:51.262Z,54.00
2024-03-18T02:53:51.252Z,53.02
2024-03-18T02:54:51.264Z,54.95
2024-03-18T02:55:51.278Z,56.29
2024-03-18T02:56:51.243Z,55.58
2024-03-18T02:57:51.247Z,54.27
2024-03-18T02:58:51.253Z,54.68
2024-03-18T02:59:51.248Z,54.80
2024-03-18T03:00:51.265Z,55.68
2024-03-18T03:01:51.278Z,51.46
2024-03-18T03:02:51.262Z,55.89
2024-03-18T03:03:51.263Z,53.26
2024-03-18T03:04:51.284Z,56.25
2024-03-18T03:05:51.280Z,56.46
2024-03-18T03:06:51.291Z,55.53
2024-03-18T03:07:51.305Z,54.79
2024-03-18T03:08:51.275Z,55.84
2024-03-18T03:09:51.298Z,57.35
2024-03-18T03:10:51.290Z,54.73
2024-03-18T03:11:51.278Z,55.42
2024-03-18T03:12:51.284Z,51.48
2024-03-18T03:13:51.300Z,54.36
2024-03-18T03:14:51.297Z,54.88
2024-03-18T03:15:51.300Z,55.27
2024-03-18T03:16:51.321Z,54.36
2024-03-18T03:17:51.362Z,55.20
2024-03-18T03:18:51.368Z,57.63
2024-03-18T03:19:51.372Z,54.84
2024-03-18T03:20:51.386Z,53.11
2024-03-18T03:21:51.380Z,53.17
2024-03-18T03:22:51.372Z,54.02
2024-03-18T03:23:51.364Z,53.67
2024-03-18T03:24:51.361Z,52.38
2024-03-18T03:25:51.410Z,53.89
2024-03-18T03:26:51.379Z,56.24
2024-03-18T03:27:51.369Z,55.68
2024-03-18T03:28:51.380Z,55.82
2024-03-18T03:29:51.396Z,56.04
2024-03-18T03:30:51.423Z,56.30
2024-03-18T03:31:51.471Z,55.61
2024-03-18T03:32:51.490Z,56.12
2024-03-18T03:33:51.524Z,55.73
2024-03-18T03:34:51.588Z,54.01
2024-03-18T03:35:51.641Z,57.05
2024-03-18T03:36:51.705Z,55.22
2024-03-18T03:37:51.722Z,53.65
2024-03-18T03:38:51.771Z,55.85
2024-03-18T03:39:51.771Z,55.47
2024-03-18T03:40:52.209Z,56.14
2024-03-18T03:41:51.843Z,55.59
2024-03-18T03:42:52.004Z,57.53
2024-03-18T03:43:51.952Z,55.63
2024-03-18T03:44:51.967Z,54.10
2024-03-18T03:45:52.001Z,57.47
2024-03-18T03:46:52.040Z,53.18
2024-03-18T03:47:52.065Z,56.48
2024-03-18T03:48:52.105Z,53.98
2024-03-18T03:49:52.155Z,53.54
2024-03-18T03:50:52.189Z,55.08
2024-03-18T03:51:52.214Z,57.50
2024-03-18T03:52:52.272Z,56.90
2024-03-18T03:53:52.287Z,54.34
2024-03-18T03:54:52.335Z,56.64
2024-03-18T03:55:52.372Z,52.45
2024-03-18T03:56:52.398Z,57.30
2024-03-18T03:57:52.442Z,56.18
2024-03-18T03:58:52.473Z,53.81
2024-03-18T03:59:52.505Z,55.80
2024-03-18T04:00:52.720Z,55.64
2024-03-18T04:01:52.594Z,56.42
2024-03-18T04:02:52.637Z,56.13
2024-03-18T04:03:52.653Z,57.53
2024-03-18T04:04:52.715Z,55.36
2024-03-18T04:05:52.760Z,55.00
2024-03-18T04:06:52.778Z,57.48
2024-03-18T04:07:52.844Z,54.50
2024-03-18T04:08:52.845Z,55.82
2024-03-18T04:09:52.889Z,55.42
2024-03-18T04:10:52.940Z,53.83
2024-03-18T04:11:52.991Z,55.78
2024-03-18T04:12:53.013Z,54.02
2024-03-18T04:13:53.035Z,53.19
2024-03-18T04:14:53.086Z,54.44
2024-03-18T04:15:53.138Z,56.01
2024-03-18T04:16:53.154Z,54.57
2024-03-18T04:17:53.187Z,56.22
2024-03-18T04:18:53.243Z,57.01
2024-03-18T04:19:53.266Z,55.45
2024-03-18T04:20:53.302Z,55.81
2024-03-18T04:21:53.336Z,56.04
2024-03-18T04:22:53.388Z,54.95
2024-03-18T04:23:53.407Z,54.76
2024-03-18T04:24:53.457Z,56.17
2024-03-18T04:25:53.495Z,55.92
2024-03-18T04:26:53.533Z,53.33
2024-03-18T04:27:53.570Z,55.85
2024-03-18T04:28:53.599Z,58.25
2024-03-18T04:29:53.640Z,54.39
2024-03-18T04:30:53.680Z,55.40
2024-03-18T04:31:53.747Z,54.11
2024-03-18T04:32:53.761Z,56.87
2024-03-18T04:33:53.787Z,56.19
2024-03-18T04:34:53.830Z,57.39
2024-03-18T04:35:53.884Z,56.07
2024-03-18T04:36:53.913Z,56.43
2024-03-18T04:37:53.965Z,54.60
2024-03-18T04:39:01.231Z,50.00
2024-03-18T04:40:01.224Z,50.00
2024-03-18T04:41:01.257Z,50.00
2024-03-18T04:42:01.241Z,50.00
2024-03-18T04:43:01.243Z,50.00
2024-03-18T04:44:01.317Z,51.03
2024-03-18T04:45:01.274Z,52.50
2024-03-18T04:46:01.262Z,51.63
2024-03-18T04:47:01.283Z,53.47
2024-03-18T04:48:01.292Z,51.21
2024-03-18T04:49:01.287Z,51.74
2024-03-18T04:50:01.324Z,50.71
2024-03-18T04:51:01.356Z,50.29
2024-03-18T04:52:01.430Z,51.11
2024-03-18T04:53:01.429Z,50.34
2024-03-18T04:54:01.435Z,52.86
2024-03-18T04:55:01.479Z,53.41
2024-03-18T04:56:01.536Z,52.48
2024-03-18T04:57:01.605Z,54.22
2024-03-18T04:58:01.670Z,53.56
2024-03-18T04:59:01.723Z,53.80
2024-03-18T05:00:01.820Z,52.63
2024-03-18T05:01:01.843Z,52.89
2024-03-18T05:02:01.896Z,53.95
2024-03-18T05:03:01.942Z,51.86
2024-03-18T05:04:02.002Z,54.86
2024-03-18T05:05:02.045Z,51.80
2024-03-18T05:06:02.089Z,52.85
2024-03-18T05:07:02.140Z,55.49
2024-03-18T05:08:02.218Z,53.80
2024-03-18T05:09:02.291Z,51.55
2024-03-18T05:10:02.351Z,54.16
2024-03-18T05:11:02.363Z,52.95
2024-03-18T05:12:02.417Z,53.71
2024-03-18T05:13:02.541Z,53.76
2024-03-18T05:14:02.535Z,54.67
2024-03-18T05:15:02.593Z,54.75
2024-03-18T05:16:02.654Z,52.15
2024-03-18T05:17:02.744Z,53.13
2024-03-18T05:18:02.768Z,52.26
2024-03-18T05:19:02.819Z,55.67
2024-03-18T05:20:02.877Z,54.42
2024-03-18T05:21:02.952Z,54.08
2024-03-18T05:22:03.001Z,52.94
2024-03-18T05:23:03.062Z,53.62
2024-03-18T05:24:04.874Z,52.11
2024-03-18T05:25:03.166Z,54.50
2024-03-18T05:26:03.173Z,50.79
2024-03-18T05:27:03.230Z,52.81
2024-03-18T05:28:03.240Z,53.77
2024-03-18T05:29:03.296Z,52.51
2024-03-18T05:30:03.302Z,53.18
2024-03-18T05:31:03.331Z,52.84
2024-03-18T05:32:03.377Z,55.66
2024-03-18T05:33:03.420Z,54.96
2024-03-18T05:34:03.431Z,54.53
2024-03-18T05:35:03.454Z,52.64
2024-03-18T05:36:03.501Z,53.21
2024-03-18T05:37:03.573Z,54.85
2024-03-18T05:38:03.614Z,53.50
2024-03-18T05:39:03.692Z,53.36
2024-03-18T05:40:03.733Z,54.70
2024-03-18T05:41:03.800Z,51.91
2024-03-18T05:42:03.855Z,51.42
2024-03-18T05:43:03.902Z,52.51
2024-03-18T05:44:03.964Z,53.88
2024-03-18T05:45:04.018Z,52.99
2024-03-18T05:46:04.086Z,53.68
2024-03-18T05:47:04.153Z,56.58
2024-03-18T05:48:06.018Z,53.53
2024-03-18T05:49:04.195Z,53.64
2024-03-18T05:50:04.203Z,52.82
2024-03-18T05:51:04.211Z,54.40
2024-03-18T05:52:04.198Z,54.50
2024-03-18T05:53:04.237Z,54.29
2024-03-18T05:54:04.218Z,55.21
2024-03-18T05:55:04.232Z,52.79
2024-03-18T05:56:04.211Z,53.93
2024-03-18T05:57:04.222Z,56.26
2024-03-18T05:58:04.201Z,53.84
2024-03-18T05:59:04.237Z,54.52
2024-03-18T06:00:04.224Z,53.52
2024-03-18T06:01:46.412Z,50.00
2024-03-18T06:02:46.423Z,50.00
2024-03-18T06:03:46.427Z,50.00
2024-03-18T06:04:46.431Z,50.00
2024-03-18T06:05:46.426Z,50.00
2024-03-18T06:06:46.436Z,52.89
2024-03-18T06:07:46.421Z,53.04
2024-03-18T06:08:46.433Z,51.62
2024-03-18T06:09:46.428Z,52.95
2024-03-18T06:10:46.449Z,51.22
2024-03-18T06:11:46.448Z,50.43
2024-03-18T06:12:46.455Z,52.85
2024-03-18T06:13:46.442Z,51.56
2024-03-18T06:14:48.012Z,52.90
2024-03-18T06:15:46.472Z,55.66
2024-03-18T06:16:46.482Z,52.34
2024-03-18T06:17:46.471Z,54.02
2024-03-18T06:18:46.450Z,53.96
2024-03-18T06:19:46.457Z,54.64
2024-03-18T06:20:46.481Z,53.29
2024-03-18T06:21:46.519Z,55.24
2024-03-18T06:22:46.466Z,52.11
2024-03-18T06:23:47.031Z,52.02
2024-03-18T06:24:46.476Z,54.08
2024-03-18T06:25:46.475Z,53.81
2024-03-18T06:26:46.503Z,52.92
2024-03-18T06:27:46.518Z,55.10
2024-03-18T06:28:46.497Z,51.36
2024-03-18T06:29:46.514Z,52.42
2024-03-18T06:30:46.499Z,52.31
2024-03-18T06:31:46.542Z,50.00
2024-03-18T06:32:46.543Z,51.58
2024-03-18T06:33:46.513Z,53.62
2024-03-18T06:34:50.032Z,55.89
2024-03-18T06:35:46.528Z,56.00
2024-03-18T06:36:46.548Z,53.73
2024-03-18T06:37:46.587Z,56.23
2024-03-18T06:38:46.518Z,54.37
2024-03-18T06:39:46.591Z,56.95
2024-03-18T06:40:46.539Z,55.27
2024-03-18T06:41:46.526Z,58.12
2024-03-18T06:42:46.551Z,56.40
2024-03-18T06:43:46.545Z,54.06
2024-03-18T06:44:46.572Z,58.28
2024-03-18T06:45:46.539Z,61.15
2024-03-18T06:46:46.545Z,58.29
2024-03-18T06:47:48.878Z,59.24
2024-03-18T06:48:46.536Z,59.47
2024-03-18T06:49:46.559Z,60.54
2024-03-18T06:50:46.554Z,64.30
2024-03-18T06:51:46.571Z,70.35
2024-03-18T06:52:46.556Z,80.12
2024-03-18T06:53:46.562Z,90.55
2024-03-18T06:54:46.566Z,103.66
2024-03-18T06:55:48.677Z,112.24
2024-03-18T06:56:46.569Z,116.60
2024-03-18T06:57:46.608Z,120.43
2024-03-18T06:58:46.599Z,124.80
2024-03-18T06:59:46.569Z,129.84
2024-03-18T07:00:46.555Z,135.07
2024-03-18T07:01:46.571Z,141.14
2024-03-18T07:02:46.592Z,146.39
2024-03-18T07:03:46.628Z,152.05
2024-03-18T07:04:46.695Z,158.62
2024-03-18T07:05:46.815Z,163.07
2024-03-18T07:06:46.937Z,168.49
2024-03-18T07:07:47.057Z,174.89
2024-03-18T07:08:47.180Z,182.30
2024-03-18T07:09:47.296Z,186.68
2024-03-18T07:10:47.500Z,190.99
2024-03-18T07:11:47.550Z,195.76
2024-03-18T07:12:47.695Z,199.16
2024-03-18T07:13:47.784Z,199.72
2024-03-18T07:14:47.894Z,200.00
2024-03-18T07:15:48.001Z,198.74
2024-03-18T07:16:48.093Z,199.86
2024-03-18T07:17:48.206Z,197.61
2024-03-18T07:18:48.336Z,198.65
2024-03-18T07:20:02.876Z,200.00
2024-03-18T07:20:50.629Z,200.19
2024-03-18T07:21:48.422Z,201.51
2024-03-18T07:22:48.453Z,204.16
2024-03-18T07:23:48.446Z,208.78
2024-03-18T07:24:48.421Z,215.51
2024-03-18T07:25:48.442Z,200.63
2024-03-18T07:26:48.448Z,198.02
2024-03-18T07:27:48.422Z,195.80
2024-03-18T07:28:48.427Z,189.85
2024-03-18T07:29:48.435Z,190.49
2024-03-18T07:30:48.450Z,188.36
2024-03-18T07:31:48.473Z,183.76
2024-03-18T07:32:48.419Z,182.91
2024-03-18T07:33:48.428Z,181.78
2024-03-18T07:34:53.274Z,178.93
2024-03-18T07:35:49.445Z,175.30
2024-03-18T07:36:48.448Z,171.62
2024-03-18T07:37:48.442Z,171.89
2024-03-18T07:38:48.425Z,172.91
2024-03-18T07:39:48.450Z,169.78
2024-03-18T07:40:48.443Z,167.12
2024-03-18T07:41:48.487Z,168.83
2024-03-18T07:42:48.440Z,164.64
2024-03-18T07:43:48.493Z,164.43
2024-03-18T07:44:48.520Z,161.52
2024-03-18T07:45:48.708Z,162.13
2024-03-18T07:46:48.736Z,161.33
2024-03-18T07:47:48.848Z,162.07
2024-03-18T07:48:48.941Z,161.86
2024-03-18T07:49:49.067Z,157.89
2024-03-18T07:50:49.146Z,150.88
2024-03-18T07:51:49.313Z,147.54
2024-03-18T07:52:49.392Z,141.08
2024-03-18T07:53:49.524Z,136.29
2024-03-18T07:54:49.676Z,136.00
2024-03-18T07:55:49.829Z,129.35
2024-03-18T07:56:49.890Z,149.77
2024-03-18T07:57:50.061Z,153.78
2024-03-18T07:58:50.117Z,155.52
2024-03-18T07:59:50.266Z,152.79
2024-03-18T08:00:50.393Z,154.19
2024-03-18T08:01:50.535Z,156.00
2024-03-18T08:02:50.636Z,158.71
2024-03-18T08:03:50.769Z,159.39
2024-03-18T08:04:50.879Z,160.65
2024-03-18T08:05:51.002Z,162.03
2024-03-18T08:06:51.120Z,165.06
2024-03-18T08:07:51.242Z,167.34
2024-03-18T08:08:51.341Z,168.82
2024-03-18T08:09:51.433Z,170.33
2024-03-18T08:10:53.321Z,173.58
2024-03-18T08:11:51.565Z,173.99
2024-03-18T08:12:51.588Z,177.50
2024-03-18T08:13:51.668Z,178.29
2024-03-18T08:14:51.650Z,179.77
2024-03-18T08:15:51.743Z,180.87
2024-03-18T08:16:51.754Z,185.14
2024-03-18T08:17:51.876Z,187.41
2024-03-18T08:18:51.806Z,187.85
2024-03-18T08:19:51.935Z,190.68
2024-03-18T08:20:54.082Z,192.70
2024-03-18T08:21:51.993Z,193.95
2024-03-18T08:22:52.053Z,195.67
2024-03-18T08:23:52.143Z,197.75
2024-03-18T08:24:52.183Z,200.00
2024-03-18T08:25:52.295Z,200.48
2024-03-18T08:26:52.423Z,198.07
2024-03-18T08:27:52.446Z,199.91
2024-03-18T08:28:52.521Z,198.48
2024-03-18T08:29:52.585Z,198.46
2024-03-18T08:30:52.697Z,200.51
2024-03-18T08:31:52.738Z,198.07
2024-03-18T08:33:07.416Z,199.79
2024-03-18T08:34:04.489Z,199.81
2024-03-18T08:34:53.847Z,199.96
2024-03-18T08:35:52.826Z,199.95
2024-03-18T08:36:52.824Z,184.86
2024-03-18T08:37:52.842Z,179.78
2024-03-18T08:38:52.843Z,163.86
2024-03-18T08:39:53.628Z,161.34
2024-03-18T08:40:52.856Z,153.99
2024-03-18T08:41:52.856Z,147.60
2024-03-18T08:42:52.816Z,143.82
2024-03-18T08:43:52.824Z,144.23
2024-03-18T08:44:52.885Z,138.64
2024-03-18T08:45:52.832Z,136.18
2024-03-18T08:46:52.831Z,137.45
2024-03-18T08:47:52.884Z,138.44
2024-03-18T08:48:52.853Z,139.07
2024-03-18T08:49:52.848Z,139.36
2024-03-18T08:50:52.867Z,134.40
2024-03-18T08:51:52.825Z,126.08
2024-03-18T08:52:52.832Z,124.99
2024-03-18T08:53:52.850Z,127.64
2024-03-18T08:54:52.870Z,131.04
2024-03-18T08:55:53.015Z,131.19
2024-03-18T08:56:53.068Z,134.20
2024-03-18T08:57:53.178Z,135.05
2024-03-18T08:58:53.341Z,137.18
2024-03-18T08:59:53.370Z,139.07
2024-03-18T09:00:53.456Z,141.80
2024-03-18T09:01:53.545Z,144.24
2024-03-18T09:02:53.609Z,145.76
2024-03-18T09:03:53.701Z,146.93
2024-03-18T09:04:53.777Z,148.40
2024-03-18T09:05:53.893Z,150.12
2024-03-18T09:06:53.962Z,152.04
2024-03-18T09:07:54.007Z,153.68
2024-03-18T09:08:54.148Z,155.93
2024-03-18T09:09:54.149Z,157.16
2024-03-18T09:10:54.224Z,159.18
2024-03-18T09:11:54.291Z,161.25
2024-03-18T09:12:54.336Z,164.16
2024-03-18T09:13:54.410Z,166.71
2024-03-18T09:14:54.464Z,168.29
2024-03-18T09:15:54.574Z,171.02
2024-03-18T09:16:54.615Z,173.42
2024-03-18T09:17:55.585Z,175.21
2024-03-18T09:18:54.690Z,173.11
2024-03-18T09:19:54.770Z,169.13
2024-03-18T09:20:54.757Z,157.17
2024-03-18T09:21:54.828Z,148.28
2024-03-18T09:22:54.885Z,134.69
2024-03-18T09:23:54.982Z,127.66
2024-03-18T09:24:55.039Z,114.56
2024-03-18T09:25:55.126Z,104.82
2024-03-18T09:26:55.272Z,95.99
2024-03-18T09:27:55.282Z,98.16
2024-03-18T09:28:55.368Z,106.48
2024-03-18T09:29:55.455Z,114.27
2024-03-18T09:30:55.602Z,118.77
2024-03-18T09:31:55.659Z,123.06
2024-03-18T09:32:55.743Z,125.10
2024-03-18T09:33:55.781Z,128.02
2024-03-18T09:34:55.879Z,129.77
2024-03-18T09:35:55.923Z,132.74
2024-03-18T09:36:56.046Z,133.96
2024-03-18T09:37:56.065Z,136.81
2024-03-18T09:38:56.153Z,138.95
2024-03-18T09:39:56.225Z,140.21
2024-03-18T09:40:56.277Z,143.57
2024-03-18T09:41:56.351Z,144.14
2024-03-18T09:42:56.392Z,145.33
2024-03-18T09:43:56.454Z,148.67
2024-03-18T09:44:56.511Z,149.66
2024-03-18T09:45:56.592Z,151.38
2024-03-18T09:46:56.607Z,154.83
2024-03-18T09:47:56.749Z,158.46
2024-03-18T09:48:56.736Z,159.09
2024-03-18T09:49:56.806Z,161.19
2024-03-18T09:50:56.851Z,163.36
2024-03-18T09:51:56.962Z,164.47
2024-03-18T09:52:56.967Z,165.36
2024-03-18T09:53:57.078Z,162.81
2024-03-18T09:54:57.151Z,158.59
2024-03-18T09:55:57.201Z,158.51
2024-03-18T09:56:57.256Z,158.61
2024-03-18T09:57:57.382Z,158.43
2024-03-18T09:58:57.424Z,158.73
2024-03-18T09:59:57.505Z,162.74
2024-03-18T10:00:57.565Z,160.66
2024-03-18T10:01:57.700Z,163.55
2024-03-18T10:02:57.726Z,160.88
2024-03-18T10:03:57.821Z,159.86
2024-03-18T10:04:57.894Z,160.40
2024-03-18T10:05:57.997Z,153.60
2024-03-18T10:06:58.038Z,145.84
2024-03-18T10:07:58.114Z,144.04
2024-03-18T10:08:58.195Z,139.91
2024-03-18T10:09:58.268Z,135.07
2024-03-18T10:10:58.365Z,133.73
2024-03-18T10:11:58.459Z,134.56
2024-03-18T10:12:58.489Z,135.02
2024-03-18T10:13:58.599Z,136.70
2024-03-18T10:14:58.636Z,137.90
2024-03-18T10:15:58.725Z,140.76
2024-03-18T10:16:59.549Z,139.47
2024-03-18T10:17:58.785Z,142.30
2024-03-18T10:18:58.775Z,144.78
2024-03-18T10:19:58.837Z,145.67
2024-03-18T10:20:58.842Z,148.36
2024-03-18T10:21:58.968Z,149.64
2024-03-18T10:22:58.871Z,150.98
2024-03-18T10:23:58.912Z,153.61
2024-03-18T10:24:58.948Z,155.90
2024-03-18T10:25:58.961Z,156.74
2024-03-18T10:26:59.022Z,157.77
2024-03-18T10:27:59.016Z,162.17
2024-03-18T10:28:59.068Z,165.41
2024-03-18T10:29:59.119Z,168.31
2024-03-18T10:30:59.134Z,170.55
2024-03-18T10:31:59.183Z,170.76
2024-03-18T10:32:59.193Z,175.41
2024-03-18T10:33:59.232Z,175.59
2024-03-18T10:34:59.272Z,181.36
2024-03-18T10:35:59.276Z,181.50
2024-03-18T10:36:59.324Z,183.00
2024-03-18T10:37:59.371Z,182.76
2024-03-18T10:38:59.405Z,182.50
2024-03-18T10:39:59.400Z,185.46
2024-03-18T10:40:59.640Z,187.19
2024-03-18T10:41:59.555Z,188.61
2024-03-18T10:42:59.632Z,188.22
2024-03-18T10:43:59.656Z,188.50
2024-03-18T10:44:59.620Z,188.32
2024-03-18T10:45:59.788Z,188.84
2024-03-18T10:46:59.822Z,190.35
2024-03-18T10:47:59.792Z,190.86
2024-03-18T10:48:59.860Z,187.44
2024-03-18T10:49:59.960Z,186.07
2024-03-18T10:50:59.994Z,188.39
2024-03-18T10:52:00.200Z,185.37
2024-03-18T10:53:00.133Z,181.49
2024-03-18T10:54:00.254Z,178.82
2024-03-18T10:55:00.317Z,177.65
2024-03-18T10:56:00.355Z,175.21
2024-03-18T10:57:00.601Z,173.06
2024-03-18T10:58:00.532Z,168.64
2024-03-18T10:59:00.597Z,167.80
2024-03-18T11:00:00.702Z,167.01
2024-03-18T11:01:00.760Z,163.75
2024-03-18T11:02:00.816Z,160.97
2024-03-18T11:03:00.898Z,158.89
2024-03-18T11:04:00.982Z,157.17
2024-03-18T11:05:01.121Z,158.03
2024-03-18T11:06:01.144Z,156.19
2024-03-18T11:07:01.244Z,152.69
2024-03-18T11:08:01.337Z,150.48
2024-03-18T11:09:01.401Z,150.89
2024-03-18T11:10:01.472Z,147.64
2024-03-18T11:11:01.564Z,146.46
2024-03-18T11:12:01.655Z,141.89
2024-03-18T11:13:01.784Z,142.04
2024-03-18T11:14:01.898Z,141.26
2024-03-18T11:15:01.933Z,137.80
2024-03-18T11:16:02.055Z,134.88
2024-03-18T11:17:03.960Z,133.34
2024-03-18T11:18:02.123Z,133.01
2024-03-18T11:19:02.148Z,132.17
2024-03-18T11:20:02.135Z,127.67
2024-03-18T11:21:02.178Z,123.63
2024-03-18T11:22:02.138Z,123.61
2024-03-18T11:23:02.167Z,120.58
2024-03-18T11:24:02.143Z,119.87
2024-03-18T11:25:02.267Z,116.85
2024-03-18T11:26:02.165Z,115.72
2024-03-18T11:27:02.169Z,114.84
2024-03-18T11:28:02.158Z,114.29
2024-03-18T11:29:02.168Z,111.50
2024-03-18T11:30:02.174Z,109.04
2024-03-18T11:31:02.150Z,107.88
2024-03-18T11:32:02.205Z,107.57
2024-03-18T11:33:02.151Z,105.02
2024-03-18T11:34:02.187Z,104.64
2024-03-18T11:35:02.159Z,103.61
2024-03-18T11:36:02.166Z,103.10
2024-03-18T11:37:02.171Z,99.78
2024-03-18T11:38:02.226Z,98.04
2024-03-18T11:39:05.985Z,95.03
2024-03-18T11:40:02.234Z,95.09
2024-03-18T11:41:02.209Z,95.26
2024-03-18T11:42:02.155Z,91.21
2024-03-18T11:43:02.169Z,89.23
2024-03-18T11:44:02.234Z,89.19
2024-03-18T11:45:02.179Z,92.15
2024-03-18T11:46:02.213Z,92.91
2024-03-18T11:47:02.167Z,94.94
2024-03-18T11:48:02.198Z,93.94
2024-03-18T11:49:02.164Z,96.48
2024-03-18T11:50:02.199Z,95.56
2024-03-18T11:51:02.654Z,96.70
2024-03-18T11:52:02.199Z,96.63
2024-03-18T11:53:02.206Z,98.20
2024-03-18T11:54:02.208Z,98.97
2024-03-18T11:55:02.188Z,99.29
2024-03-18T11:56:02.232Z,100.17
2024-03-18T11:57:02.203Z,99.91
2024-03-18T11:58:02.178Z,101.10
2024-03-18T11:59:02.299Z,102.38
2024-03-18T12:00:02.482Z,100.65
2024-03-18T12:01:04.543Z,100.76
2024-03-18T12:02:02.535Z,100.87
2024-03-18T12:03:02.550Z,101.13
2024-03-18T12:04:02.537Z,101.31
2024-03-18T12:05:02.535Z,101.60
2024-03-18T12:06:02.645Z,103.43
2024-03-18T12:07:02.536Z,103.62
2024-03-18T12:08:02.548Z,102.86
2024-03-18T12:09:02.562Z,102.14
2024-03-18T12:10:02.545Z,104.00
2024-03-18T12:11:02.545Z,104.86
2024-03-18T12:12:02.557Z,103.89
2024-03-18T12:13:04.756Z,104.08
2024-03-18T12:14:02.555Z,107.93
2024-03-18T12:15:02.631Z,106.21
2024-03-18T12:16:02.678Z,105.76
2024-03-18T12:17:11.239Z,106.44
2024-03-18T12:18:03.745Z,106.56
2024-03-18T12:19:02.786Z,106.67
2024-03-18T12:20:02.746Z,106.89
2024-03-18T12:21:02.740Z,106.82
2024-03-18T12:22:02.765Z,107.24
2024-03-18T12:23:02.783Z,107.44
2024-03-18T12:24:02.755Z,108.05
2024-03-18T12:25:02.761Z,107.77
2024-03-18T12:26:02.754Z,109.22
2024-03-18T12:27:02.864Z,110.09
2024-03-18T12:28:02.953Z,109.09
2024-03-18T12:29:03.131Z,108.69
2024-03-18T12:30:03.244Z,110.17
2024-03-18T12:31:03.365Z,108.23
2024-03-18T12:32:03.422Z,109.38
2024-03-18T12:33:03.536Z,108.56
2024-03-18T12:34:03.620Z,110.91
2024-03-18T12:35:03.750Z,109.66
2024-03-18T12:36:03.844Z,108.40
2024-03-18T12:37:03.975Z,111.44
2024-03-18T12:38:04.060Z,112.96
2024-03-18T12:39:04.181Z,110.23
2024-03-18T12:40:04.300Z,109.98
2024-03-18T12:41:04.406Z,111.46
2024-03-18T12:42:04.517Z,111.20
2024-03-18T12:43:04.632Z,112.67
2024-03-18T12:44:04.760Z,113.73